ADDS METAR Data INFO
IDs: Format: Raw Decoded Include TAF

Data at: 1225 UTC 22 Feb 2018

KAPF 221153Z 07007KT 9SM CLR 20/19 A3032 RMK AO2 SLP265 T02000194 10206 20200 53009
KAPF 221053Z 07007KT 10SM CLR 20/19 A3030 RMK AO2 SLP259 T02000194
KAPF 220953Z AUTO 07007KT 10SM FEW030 20/19 A3029 RMK AO2 SLP256 T02000194
KAPF 220926Z AUTO 06007KT 10SM FEW022 SCT029 20/19 A3029 RMK AO2 T02000194
KAPF 220913Z AUTO 06007KT 10SM FEW022 BKN029 20/19 A3029 RMK AO2 T02000194
KAPF 220853Z AUTO 07007KT 10SM FEW024 BKN031 20/19 A3029 RMK AO2 SLP256 T02000194 58010
KAPF 220753Z AUTO 06006KT 10SM CLR 20/19 A3030 RMK AO2 SLP260 T02000194
KAPF 220653Z AUTO 06006KT 10SM CLR 20/19 A3031 RMK AO2 SLP262 T02000194
KAPF 220553Z AUTO 06006KT 10SM CLR 21/19 A3032 RMK AO2 SLP266 T02060194 10267 20206 58004
KAPF 220453Z AUTO 06006KT 10SM CLR 21/19 A3033 RMK AO2 SLP269 T02110189 403170211
KAPF 220353Z AUTO 05007KT 10SM CLR 22/19 A3034 RMK AO2 SLP271 T02170194
KAPF 212353Z 09008KT 10SM CLR 27/18 A3028 RMK AO2 SLP254 T02670183 10317 20267 53009
KAPF 212253Z 08014G20KT 10SM SCT044 BKN060 28/19 A3027 RMK AO2 SLP250 T02780189
KAPF 212153Z 08013G23KT 10SM BKN060 29/18 A3026 RMK AO2 SLP244 T02890183
KAPF 212053Z 10012KT 10SM BKN060 29/17 A3026 RMK AO2 SLP245 T02940172 56016
KAPF 211953Z 09011KT 10SM FEW055 31/18 A3027 RMK AO2 SLP248 T03060178
KAPF 211853Z 12011KT 10SM SCT050 31/17 A3028 RMK AO2 SLP253 T03110172
KAPF 211753Z 12010KT 10SM BKN047 29/18 A3031 RMK AO2 SLP261 T02940178 10300 20211 58014
KAPF 211700Z 10011G18KT 10SM BKN045 29/19 A3033 RMK AO2 T02890189
KAPF 211653Z 10013G19KT 10SM BKN025 29/19 A3033 RMK AO2 SLP270 T02940194
KAPF 211553Z 10010G16KT 10SM BKN025 27/21 A3035 RMK AO2 SLP276 T02720206
KAPF 211534Z 11014KT 10SM BKN025 27/21 A3035 RMK AO2 T02670206
KAPF 211506Z 10009KT 10SM SCT021 BKN033 26/21 A3035 RMK AO2 T02610211
KAPF 211453Z 11008KT 10SM BKN025 26/22 A3035 RMK AO2 SLP275 T02610217 51006
KAPF 211451Z 09009KT 10SM BKN025 26/22 A3035 RMK AO2
KAPF 211353Z 10010KT 10SM CLR 24/22 A3034 RMK AO2 SLP273 T02390217
KAPF 211253Z 07007KT 10SM FEW040 22/22 A3033 RMK AO2 SLP269 T02220217
KAPF 210753Z AUTO 08007KT 6SM BR CLR 22/22 A3028 RMK AO2 SLP253 T02170217
KAPF 210653Z AUTO 08007KT 7SM CLR 22/22 A3030 RMK AO2 SLP259 T02220217
KAPF 210553Z AUTO 08008KT 8SM CLR 23/22 A3031 RMK AO2 SLP261 T02280217 10267 20228 50001